createdAt,value
2018-09-17T00:02:17.208Z,18.80
2018-09-17T00:04:45.413Z,18.40
2018-09-17T00:07:13.620Z,19.00
2018-09-17T00:09:41.830Z,19.17
2018-09-17T00:12:10.266Z,18.50
2018-09-17T00:14:38.499Z,17.43
2018-09-17T00:17:06.694Z,19.60
2018-09-17T00:19:34.931Z,19.70
2018-09-17T00:22:02.985Z,19.43
2018-09-17T00:24:31.025Z,17.50
2018-09-17T00:26:58.952Z,17.17
2018-09-17T00:29:27.556Z,18.27
2018-09-17T00:31:55.521Z,17.87
2018-09-17T00:34:23.461Z,18.70
2018-09-17T00:36:51.467Z,21.40
2018-09-17T00:39:19.540Z,18.60
2018-09-17T00:41:47.725Z,19.47
2018-09-17T00:44:15.961Z,20.83
2018-09-17T00:46:44.149Z,19.70
2018-09-17T00:49:12.492Z,18.60
2018-09-17T00:51:40.954Z,17.43
2018-09-17T00:54:09.153Z,18.03
2018-09-17T00:56:37.404Z,17.90
2018-09-17T00:59:05.599Z,17.67
2018-09-17T01:01:34.125Z,18.43
2018-09-17T01:04:02.189Z,18.40
2018-09-17T01:06:30.174Z,17.60
2018-09-17T01:08:58.093Z,18.00
2018-09-17T01:11:26.037Z,18.83
2018-09-17T01:13:53.963Z,18.93
2018-09-17T01:16:21.906Z,20.30
2018-09-17T01:18:49.987Z,21.60
2018-09-17T01:21:18.121Z,20.10
2018-09-17T01:23:46.213Z,20.50
2018-09-17T01:28:49.216Z,19.00
2018-09-17T01:31:17.403Z,20.20
2018-09-17T01:33:45.493Z,20.63
2018-09-17T01:36:13.726Z,20.47
2018-09-17T01:38:41.920Z,20.27
2018-09-17T01:41:10.193Z,20.87
2018-09-17T01:43:38.487Z,20.10
2018-09-17T01:46:06.639Z,22.87
2018-09-17T01:48:34.569Z,20.63
2018-09-17T01:51:02.487Z,22.60
2018-09-17T01:53:30.443Z,23.47
2018-09-17T01:55:58.357Z,22.30
2018-09-17T01:58:26.318Z,21.67
2018-09-17T02:00:54.257Z,22.07
2018-09-17T02:03:22.222Z,22.30
2018-09-17T02:05:56.648Z,19.50
2018-09-17T02:08:24.749Z,18.27
2018-09-17T02:10:52.671Z,18.50
2018-09-17T02:13:20.691Z,18.30
2018-09-17T02:15:48.773Z,19.90
2018-09-17T02:18:16.874Z,20.67
2018-09-17T02:20:45.054Z,19.33
2018-09-17T02:23:13.886Z,21.17
2018-09-17T02:25:42.225Z,21.40
2018-09-17T02:28:10.555Z,20.17
2018-09-17T02:30:38.861Z,19.13
2018-09-17T02:33:06.981Z,20.63
2018-09-17T02:35:34.900Z,21.50
2018-09-17T02:38:02.898Z,21.10
2018-09-17T02:40:30.842Z,22.97
2018-09-17T02:42:58.769Z,21.50
2018-09-17T02:45:26.725Z,18.57
2018-09-17T02:47:54.674Z,20.43
2018-09-17T02:50:22.642Z,20.87
2018-09-17T02:52:50.753Z,21.17
2018-09-17T02:55:18.884Z,20.30
2018-09-17T02:57:47.202Z,21.90
2018-09-17T03:00:19.439Z,23.00
2018-09-17T03:02:48.269Z,21.50
2018-09-17T03:05:21.372Z,25.07
2018-09-17T03:07:49.543Z,22.83
2018-09-17T03:10:17.747Z,21.40
2018-09-17T03:12:45.836Z,20.73
2018-09-17T03:15:19.481Z,22.87
2018-09-17T03:17:47.579Z,22.73
2018-09-17T03:20:15.761Z,21.70
2018-09-17T03:22:43.879Z,22.20
2018-09-17T03:25:12.954Z,21.17
2018-09-17T03:27:41.171Z,21.23
2018-09-17T03:30:09.500Z,20.90
2018-09-17T03:32:37.581Z,20.17
2018-09-17T03:35:05.689Z,20.70
2018-09-17T03:37:33.606Z,19.73
2018-09-17T03:40:01.616Z,20.20
2018-09-17T03:42:29.928Z,19.50
2018-09-17T03:44:58.501Z,24.13
2018-09-17T03:47:26.633Z,19.70
2018-09-17T03:49:54.599Z,19.83
2018-09-17T03:52:22.864Z,19.90
2018-09-17T03:54:50.889Z,19.17
2018-09-17T03:57:18.973Z,20.40
2018-09-17T03:59:47.101Z,19.63
2018-09-17T04:02:15.165Z,20.50
2018-09-17T04:04:43.397Z,19.30
2018-09-17T04:07:12.073Z,19.20
2018-09-17T04:09:43.108Z,19.30
2018-09-17T04:12:11.533Z,20.67
2018-09-17T04:14:39.960Z,19.60
2018-09-17T04:17:08.167Z,21.00
2018-09-17T04:19:36.467Z,19.37
2018-09-17T04:22:04.631Z,19.40
2018-09-17T04:24:32.639Z,18.53
2018-09-17T04:27:00.608Z,17.77
2018-09-17T04:29:28.545Z,17.80
2018-09-17T04:31:56.501Z,17.00
2018-09-17T04:34:28.961Z,16.70
2018-09-17T04:36:56.894Z,18.23
2018-09-17T04:39:25.939Z,18.50
2018-09-17T04:41:53.925Z,16.93
2018-09-17T04:44:21.860Z,17.90
2018-09-17T04:46:50.028Z,16.57
2018-09-17T04:49:18.182Z,16.90
2018-09-17T04:51:46.292Z,18.00
2018-09-17T04:54:14.484Z,16.87
2018-09-17T04:56:43.134Z,21.13
2018-09-17T04:59:11.305Z,18.53
2018-09-17T05:01:39.937Z,17.07
2018-09-17T05:04:08.089Z,17.30
2018-09-17T05:06:36.572Z,17.13
2018-09-17T05:09:06.223Z,17.00
2018-09-17T05:11:34.495Z,18.30
2018-09-17T05:14:02.537Z,16.10
2018-09-17T05:16:30.496Z,16.40
2018-09-17T05:18:58.432Z,18.33
2018-09-17T05:21:26.396Z,16.37
2018-09-17T05:23:54.345Z,16.47
2018-09-17T05:26:22.324Z,15.40
2018-09-17T05:28:50.468Z,17.13
2018-09-17T05:31:18.584Z,16.03
2018-09-17T05:33:46.916Z,15.03
2018-09-17T05:36:15.585Z,16.50
2018-09-17T05:38:44.229Z,14.80
2018-09-17T05:41:12.572Z,14.20
2018-09-17T05:43:41.046Z,15.50
2018-09-17T05:46:09.449Z,14.27
2018-09-17T05:48:38.288Z,15.60
2018-09-17T05:51:06.532Z,14.27
2018-09-17T05:53:34.831Z,16.80
2018-09-17T05:56:02.921Z,14.90
2018-09-17T05:58:30.915Z,13.87
2018-09-17T06:00:59.006Z,16.67
2018-09-17T06:03:26.949Z,15.13
2018-09-17T06:05:54.958Z,14.40
2018-09-17T06:08:22.936Z,14.30
2018-09-17T06:10:51.868Z,14.70
2018-09-17T06:13:19.981Z,14.67
2018-09-17T06:15:48.162Z,14.43
2018-09-17T06:18:16.368Z,13.47
2018-09-17T06:20:44.681Z,13.33
2018-09-17T06:23:12.990Z,14.40
2018-09-17T06:26:43.517Z,13.57
2018-09-17T06:29:11.810Z,14.80
2018-09-17T06:31:40.408Z,14.13
2018-09-17T06:34:08.815Z,13.00
2018-09-17T06:36:37.337Z,14.37
2018-09-17T06:39:06.484Z,13.87
2018-09-17T06:41:35.193Z,14.30
2018-09-17T06:44:03.348Z,14.37
2018-09-17T06:46:31.386Z,14.87
2018-09-17T06:48:59.320Z,15.33
2018-09-17T06:51:27.409Z,15.57
2018-09-17T06:53:55.512Z,15.77
2018-09-17T06:56:23.456Z,16.77
2018-09-17T06:58:51.560Z,15.33
2018-09-17T07:01:19.905Z,18.27
2018-09-17T07:03:48.444Z,27.20
2018-09-17T07:06:16.567Z,20.27
2018-09-17T07:08:44.968Z,19.20
2018-09-17T07:11:13.832Z,18.00
2018-09-17T07:13:42.307Z,17.90
2018-09-17T07:16:11.098Z,17.67
2018-09-17T07:18:39.413Z,17.20
2018-09-17T07:21:07.871Z,18.67
2018-09-17T07:23:36.779Z,17.70
2018-09-17T07:26:05.261Z,17.47
2018-09-17T07:28:33.385Z,16.57
2018-09-17T07:31:01.340Z,17.10
2018-09-17T07:33:29.324Z,18.27
2018-09-17T07:35:57.357Z,15.97
2018-09-17T07:38:25.299Z,15.53
2018-09-17T07:40:53.608Z,16.73
2018-09-17T07:43:21.636Z,18.80
2018-09-17T07:45:49.664Z,16.27
2018-09-17T07:48:17.730Z,15.53
2018-09-17T07:50:45.776Z,17.10
2018-09-17T07:53:13.959Z,17.10
2018-09-17T07:55:42.539Z,15.60
2018-09-17T07:58:11.047Z,17.40
2018-09-17T08:00:39.745Z,16.90
2018-09-17T08:03:07.921Z,16.63
2018-09-17T08:05:36.083Z,17.47
2018-09-17T08:08:04.251Z,16.50
2018-09-17T08:10:32.188Z,16.30
2018-09-17T08:13:00.177Z,15.77
2018-09-17T08:15:28.140Z,14.57
2018-09-17T08:17:56.371Z,15.10
2018-09-17T08:20:24.542Z,15.53
2018-09-17T08:22:52.718Z,13.43
2018-09-17T08:25:20.724Z,14.10
2018-09-17T08:27:49.323Z,14.40
2018-09-17T08:30:17.400Z,12.40
2018-09-17T08:32:45.684Z,13.30
2018-09-17T08:35:14.313Z,12.77
2018-09-17T08:37:42.739Z,11.43
2018-09-17T08:40:11.453Z,11.57
2018-09-17T08:42:40.887Z,11.43
2018-09-17T08:45:09.960Z,11.63
2018-09-17T08:47:38.519Z,11.73
2018-09-17T08:50:07.480Z,12.80
2018-09-17T08:52:35.743Z,10.73
2018-09-17T08:55:08.993Z,11.73
2018-09-17T08:57:40.185Z,11.13
2018-09-17T09:00:14.019Z,11.10
2018-09-17T09:02:43.809Z,11.17
2018-09-17T09:05:17.787Z,9.73
2018-09-17T09:07:51.187Z,11.23
2018-09-17T09:10:24.329Z,10.43
2018-09-17T09:12:57.540Z,10.00
2018-09-17T09:15:30.780Z,10.03
2018-09-17T09:17:58.759Z,9.30
2018-09-17T09:20:27.128Z,10.77
2018-09-17T09:22:55.178Z,9.53
2018-09-17T09:25:23.772Z,8.90
2018-09-17T09:27:51.929Z,9.90
2018-09-17T09:30:19.956Z,7.87
2018-09-17T09:32:48.096Z,9.50
2018-09-17T09:35:17.136Z,8.97
2018-09-17T09:37:45.585Z,9.27
2018-09-17T09:40:14.228Z,9.57
2018-09-17T09:42:43.252Z,9.90
2018-09-17T09:45:11.512Z,8.37
2018-09-17T09:47:40.310Z,8.97
2018-09-17T09:50:08.656Z,9.67
2018-09-17T09:52:37.373Z,9.20
2018-09-17T09:55:05.370Z,9.10
2018-09-17T09:57:34.025Z,9.03
2018-09-17T10:00:02.222Z,8.73
2018-09-17T10:02:35.698Z,8.63
2018-09-17T10:05:04.365Z,8.20
2018-09-17T10:07:32.437Z,9.30
2018-09-17T10:10:05.801Z,8.50
2018-09-17T10:12:39.424Z,8.67
2018-09-17T10:15:13.096Z,9.93
2018-09-17T10:17:46.829Z,8.87
2018-09-17T10:20:15.568Z,8.17
2018-09-17T10:22:44.169Z,8.67
2018-09-17T10:25:12.876Z,7.53
2018-09-17T10:27:41.791Z,8.13
2018-09-17T10:30:10.282Z,8.10
2018-09-17T10:32:38.802Z,8.50
2018-09-17T10:35:07.473Z,6.60
2018-09-17T10:37:35.923Z,7.27
2018-09-17T10:40:04.344Z,8.20
2018-09-17T10:42:32.446Z,7.70
2018-09-17T10:45:00.640Z,7.37
2018-09-17T10:47:28.649Z,7.50
2018-09-17T10:49:56.862Z,7.90
2018-09-17T10:52:24.954Z,6.70
2018-09-17T10:54:52.951Z,7.63
2018-09-17T10:57:21.718Z,7.27
2018-09-17T10:59:50.015Z,6.03
2018-09-17T11:02:18.491Z,6.67
2018-09-17T11:04:46.894Z,6.83
2018-09-17T11:07:15.373Z,6.97
2018-09-17T11:09:44.238Z,5.30
2018-09-17T11:12:12.869Z,6.10
2018-09-17T11:14:41.253Z,6.83
2018-09-17T11:17:10.333Z,6.73
2018-09-17T11:19:38.798Z,6.70
2018-09-17T11:22:07.243Z,7.53
2018-09-17T11:24:35.586Z,6.00
2018-09-17T11:27:03.772Z,6.10
2018-09-17T11:29:32.513Z,6.10
2018-09-17T11:32:00.513Z,6.60
2018-09-17T11:34:28.584Z,7.90
2018-09-17T11:36:57.096Z,6.67
2018-09-17T11:39:25.236Z,6.80
2018-09-17T11:41:53.654Z,7.03
2018-09-17T11:44:21.822Z,7.03
2018-09-17T11:46:50.372Z,7.60
2018-09-17T11:49:18.470Z,7.47
2018-09-17T11:51:46.833Z,8.10
2018-09-17T11:54:15.695Z,7.47
2018-09-17T11:56:43.993Z,7.30
2018-09-17T11:59:12.944Z,6.10
2018-09-17T12:01:46.779Z,6.27
2018-09-17T12:04:29.456Z,7.00
2018-09-17T12:07:02.832Z,6.13
2018-09-17T12:09:30.808Z,7.07
2018-09-17T12:11:58.924Z,8.20
2018-09-17T12:14:26.965Z,8.13
2018-09-17T12:16:54.993Z,7.57
2018-09-17T12:19:23.152Z,7.60
2018-09-17T12:21:51.118Z,8.10
2018-09-17T12:24:19.448Z,7.57
2018-09-17T12:26:48.823Z,6.17
2018-09-17T12:29:17.127Z,8.27
2018-09-17T12:31:45.678Z,7.00
2018-09-17T12:34:14.089Z,7.57
2018-09-17T12:36:42.479Z,8.50
2018-09-17T12:39:12.677Z,7.13
2018-09-17T12:41:41.247Z,7.27
2018-09-17T12:44:09.583Z,7.03
2018-09-17T12:46:37.678Z,7.13
2018-09-17T12:49:06.170Z,6.70
2018-09-17T12:51:34.529Z,7.20
2018-09-17T12:54:02.761Z,7.97
2018-09-17T12:56:30.888Z,8.37
2018-09-17T12:58:59.485Z,8.80
2018-09-17T13:01:27.683Z,7.57
2018-09-17T13:03:55.756Z,8.20
2018-09-17T13:06:23.781Z,7.63
2018-09-17T13:08:52.502Z,8.17
2018-09-17T13:11:20.702Z,7.30
2018-09-17T13:13:48.977Z,8.63
2018-09-17T13:16:17.531Z,10.27
2018-09-17T13:18:46.062Z,9.43
2018-09-17T13:21:14.714Z,7.53
2018-09-17T13:23:43.543Z,7.90
2018-09-17T13:26:11.844Z,7.67
2018-09-17T13:28:40.488Z,8.37
2018-09-17T13:31:09.573Z,7.73
2018-09-17T13:33:38.330Z,8.00
2018-09-17T13:36:06.886Z,7.80
2018-09-17T13:38:41.485Z,8.17
2018-09-17T13:41:10.634Z,7.17
2018-09-17T13:43:40.500Z,8.30
2018-09-17T13:46:09.112Z,8.50
2018-09-17T13:48:37.532Z,9.17
2018-09-17T13:51:05.831Z,8.47
2018-09-17T13:53:34.787Z,9.37
2018-09-17T13:56:03.005Z,8.90
2018-09-17T13:58:31.182Z,8.87
2018-09-17T14:00:59.440Z,8.90
2018-09-17T14:03:28.761Z,10.47
2018-09-17T14:05:56.887Z,8.97
2018-09-17T14:08:25.128Z,8.30
2018-09-17T14:10:53.183Z,9.47
2018-09-17T14:13:21.694Z,8.90
2018-09-17T14:15:55.200Z,11.73
2018-09-17T14:18:23.180Z,9.73
2018-09-17T14:20:51.376Z,9.60
2018-09-17T14:23:19.577Z,9.33
2018-09-17T14:25:48.110Z,10.40
2018-09-17T14:28:16.165Z,9.13
2018-09-17T14:30:44.373Z,9.00
2018-09-17T14:33:18.343Z,9.77
2018-09-17T14:35:46.811Z,9.50
2018-09-17T14:38:15.193Z,8.63
2018-09-17T14:40:43.907Z,8.93
2018-09-17T14:43:12.678Z,10.00
2018-09-17T14:45:42.136Z,10.43
2018-09-17T14:48:11.086Z,9.10
2018-09-17T14:50:39.584Z,8.17
2018-09-17T14:53:08.151Z,9.23
2018-09-17T14:55:36.865Z,10.07
2018-09-17T14:58:05.166Z,9.80
2018-09-17T15:00:33.697Z,8.93
2018-09-17T15:03:01.815Z,9.47
2018-09-17T15:05:30.009Z,8.43
2018-09-17T15:07:58.215Z,9.70
2018-09-17T15:10:26.245Z,9.00
2018-09-17T15:12:54.385Z,10.07
2018-09-17T15:15:22.559Z,11.60
2018-09-17T15:17:51.648Z,12.30
2018-09-17T15:20:20.283Z,10.57
2018-09-17T15:22:48.875Z,10.33
2018-09-17T15:25:17.253Z,10.00
2018-09-17T15:27:47.061Z,8.30
2018-09-17T15:30:15.449Z,10.10
2018-09-17T15:32:44.279Z,8.63
2018-09-17T15:35:13.239Z,9.50
2018-09-17T15:37:42.522Z,8.73
2018-09-17T15:40:11.283Z,10.43
2018-09-17T15:42:40.133Z,10.07
2018-09-17T15:45:09.677Z,9.13
2018-09-17T15:47:38.941Z,7.90
2018-09-17T15:50:07.809Z,9.87
2018-09-17T15:52:35.823Z,9.17
2018-09-17T15:55:04.029Z,8.10
2018-09-17T15:57:32.514Z,9.07
2018-09-17T16:00:00.669Z,9.30
2018-09-17T16:02:28.899Z,9.73
2018-09-17T16:04:57.018Z,8.60
2018-09-17T16:07:25.182Z,9.03
2018-09-17T16:09:53.345Z,9.27
2018-09-17T16:12:21.541Z,8.97
2018-09-17T16:14:50.270Z,9.87
2018-09-17T16:17:18.729Z,9.37
2018-09-17T16:19:47.283Z,8.80
2018-09-17T16:22:15.630Z,8.60
2018-09-17T16:24:44.297Z,8.33
2018-09-17T16:27:13.813Z,9.00
2018-09-17T16:29:42.307Z,8.50
2018-09-17T16:32:10.996Z,9.27
2018-09-17T16:34:40.727Z,9.87
2018-09-17T16:37:09.445Z,9.27
2018-09-17T16:39:39.243Z,8.40
2018-09-17T16:42:07.865Z,8.17
2018-09-17T16:44:36.984Z,9.23
2018-09-17T16:47:05.293Z,8.37
2018-09-17T16:49:33.569Z,7.50
2018-09-17T16:52:01.952Z,9.97
2018-09-17T16:54:30.080Z,8.93
2018-09-17T16:56:58.256Z,7.80
2018-09-17T16:59:26.477Z,8.90
2018-09-17T17:01:54.826Z,9.40
2018-09-17T17:04:23.027Z,8.40
2018-09-17T17:06:51.159Z,9.43
2018-09-17T17:09:19.399Z,8.53
2018-09-17T17:11:48.644Z,9.10
2018-09-17T17:14:17.217Z,10.43
2018-09-17T17:16:47.305Z,8.40
2018-09-17T17:19:16.927Z,8.77
2018-09-17T17:21:45.679Z,9.20
2018-09-17T17:24:15.492Z,9.60
2018-09-17T17:26:44.291Z,9.87
2018-09-17T17:29:12.911Z,8.60
2018-09-17T17:31:42.002Z,9.67
2018-09-17T17:34:11.923Z,9.53
2018-09-17T17:36:41.285Z,9.10
2018-09-17T17:39:11.391Z,10.30
2018-09-17T17:41:40.270Z,9.40
2018-09-17T17:44:08.687Z,9.90
2018-09-17T17:46:37.152Z,9.90
2018-09-17T17:49:05.549Z,10.57
2018-09-17T17:51:33.844Z,10.53
2018-09-17T17:54:01.905Z,9.50
2018-09-17T17:56:30.032Z,9.80
2018-09-17T17:58:58.080Z,8.10
2018-09-17T18:01:26.371Z,10.27
2018-09-17T18:03:54.383Z,10.27
2018-09-17T18:06:22.493Z,9.67
2018-09-17T18:08:50.754Z,10.40
2018-09-17T18:11:19.509Z,10.30
2018-09-17T18:13:47.650Z,9.20
2018-09-17T18:16:15.980Z,10.63
2018-09-17T18:18:44.209Z,10.17
2018-09-17T18:21:12.430Z,10.43
2018-09-17T18:23:40.709Z,10.50
2018-09-17T18:26:09.209Z,11.40
2018-09-17T18:28:38.280Z,11.00
2018-09-17T18:31:06.293Z,12.20
2018-09-17T18:33:34.188Z,11.00
2018-09-17T18:36:02.133Z,11.23
2018-09-17T18:38:30.110Z,12.30
2018-09-17T18:40:58.393Z,13.27
2018-09-17T18:43:26.338Z,12.57
2018-09-17T18:45:54.267Z,11.50
2018-09-17T18:48:22.513Z,12.57
2018-09-17T18:50:50.546Z,10.47
2018-09-17T18:53:18.616Z,11.40
2018-09-17T18:55:47.264Z,13.20
2018-09-17T18:58:16.044Z,13.57
2018-09-17T19:00:45.393Z,12.90
2018-09-17T19:03:14.575Z,12.37
2018-09-17T19:05:43.073Z,13.13
2018-09-17T19:08:11.896Z,12.73
2018-09-17T19:10:40.572Z,13.67
2018-09-17T19:13:09.721Z,11.77
2018-09-17T19:15:43.858Z,12.90
2018-09-17T19:18:17.757Z,11.70
2018-09-17T19:20:46.664Z,13.07
2018-09-17T19:23:19.605Z,12.00
2018-09-17T19:25:47.726Z,12.80
2018-09-17T19:28:21.221Z,13.40
2018-09-17T19:30:49.680Z,12.07
2018-09-17T19:33:18.339Z,13.50
2018-09-17T19:35:46.540Z,12.10
2018-09-17T19:38:19.950Z,12.20
2018-09-17T19:40:48.063Z,13.03
2018-09-17T19:43:16.417Z,10.93
2018-09-17T19:45:49.971Z,12.23
2018-09-17T19:48:18.064Z,12.53
2018-09-17T19:50:52.040Z,12.80
2018-09-17T19:53:20.093Z,13.43
2018-09-17T19:55:48.712Z,13.60
2018-09-17T19:58:22.115Z,14.33
2018-09-17T20:00:50.494Z,13.40
2018-09-17T20:03:18.574Z,13.27
2018-09-17T20:05:51.861Z,13.60
2018-09-17T20:08:19.986Z,13.13
2018-09-17T20:10:48.233Z,13.70
2018-09-17T20:13:16.523Z,13.83
2018-09-17T20:15:44.840Z,14.40
2018-09-17T20:18:13.891Z,14.00
2018-09-17T20:20:42.037Z,14.00
2018-09-17T20:23:10.256Z,13.30
2018-09-17T20:25:38.205Z,13.70
2018-09-17T20:28:06.241Z,14.63
2018-09-17T20:30:34.173Z,14.00
2018-09-17T20:33:02.181Z,13.50
2018-09-17T20:35:30.162Z,13.90
2018-09-17T20:37:58.105Z,13.27
2018-09-17T20:40:26.078Z,13.97
2018-09-17T20:42:54.136Z,14.73
2018-09-17T20:45:22.715Z,13.40
2018-09-17T20:47:51.093Z,14.87
2018-09-17T20:50:19.224Z,13.60
2018-09-17T20:52:47.429Z,13.70
2018-09-17T20:55:15.747Z,15.17
2018-09-17T20:57:44.232Z,14.87
2018-09-17T21:02:47.225Z,14.43
2018-09-17T21:05:15.641Z,15.90
2018-09-17T21:07:48.987Z,15.20
2018-09-17T21:10:18.162Z,15.17
2018-09-17T21:12:46.278Z,15.40
2018-09-17T21:15:14.425Z,16.47
2018-09-17T21:17:42.832Z,14.80
2018-09-17T21:20:11.197Z,15.13
2018-09-17T21:22:39.745Z,14.70
2018-09-17T21:25:08.159Z,14.87
2018-09-17T21:27:36.301Z,15.03
2018-09-17T21:30:04.476Z,16.40
2018-09-17T21:32:32.509Z,15.10
2018-09-17T21:35:00.506Z,13.47
2018-09-17T21:37:28.430Z,14.10
2018-09-17T21:39:56.384Z,15.87
2018-09-17T21:42:24.338Z,15.87
2018-09-17T21:44:52.387Z,15.07
2018-09-17T21:47:20.349Z,15.00
2018-09-17T21:49:48.778Z,15.33
2018-09-17T21:52:16.984Z,15.03
2018-09-17T21:54:45.282Z,16.47
2018-09-17T21:57:13.562Z,14.67
2018-09-17T21:59:41.924Z,14.60
2018-09-17T22:02:10.429Z,14.63
2018-09-17T22:04:39.475Z,14.73
2018-09-17T22:07:07.530Z,14.47
2018-09-17T22:09:36.475Z,14.20
2018-09-17T22:12:04.926Z,13.67
2018-09-17T22:14:32.893Z,13.97
2018-09-17T22:17:00.859Z,14.13
2018-09-17T22:19:28.792Z,14.97
2018-09-17T22:21:56.790Z,15.23
2018-09-17T22:24:24.741Z,15.73
2018-09-17T22:26:52.716Z,15.70
2018-09-17T22:29:20.725Z,14.50
2018-09-17T22:31:48.948Z,14.23
2018-09-17T22:34:17.068Z,15.60
2018-09-17T22:36:45.337Z,16.30
2018-09-17T22:39:13.544Z,16.17
2018-09-17T22:41:42.110Z,16.33
2018-09-17T22:44:10.425Z,16.27
2018-09-17T22:46:38.560Z,13.40
2018-09-17T22:49:06.980Z,13.83
2018-09-17T22:51:34.972Z,15.63
2018-09-17T22:54:02.925Z,14.40
2018-09-17T22:56:30.873Z,15.57
2018-09-17T22:58:58.836Z,15.60
2018-09-17T23:01:26.761Z,17.23
2018-09-17T23:03:54.801Z,15.93
2018-09-17T23:06:22.732Z,15.50
2018-09-17T23:08:50.696Z,15.13
2018-09-17T23:11:18.771Z,14.53
2018-09-17T23:13:46.915Z,13.20
2018-09-17T23:16:15.097Z,15.30
2018-09-17T23:18:43.357Z,16.70
2018-09-17T23:21:11.557Z,15.17
2018-09-17T23:23:39.886Z,13.97
2018-09-17T23:26:08.198Z,14.60
2018-09-17T23:28:36.407Z,14.83
2018-09-17T23:31:04.683Z,12.83
2018-09-17T23:33:32.678Z,16.40
2018-09-17T23:36:00.732Z,15.77
2018-09-17T23:38:28.660Z,14.20
2018-09-17T23:40:56.595Z,15.07
2018-09-17T23:43:24.601Z,16.07
2018-09-17T23:45:52.560Z,14.67
2018-09-17T23:48:20.692Z,14.27
2018-09-17T23:50:48.906Z,14.27
2018-09-17T23:53:17.198Z,15.57
2018-09-17T23:55:45.536Z,15.10
2018-09-17T23:58:14.040Z,16.20
